Star Vega — 3EVB3 — position and weather

sailwx.info

Track history (hours):
 
Tides and Currents Weather Stations Pressure Air Temp Water Temp Dewpoint Dewpoint Depression Visibility Wind Speed Wind Dir Waves Ship Positions

Star Vega

Last reported at 2014-Jul-29 22:20 UTC. Time now 2014-Jul-30 05:10 UTC.
Position N 31°13' E 029°45'.

Length 189 m; draft 10.3 m.

Type: Cargo ship. MMSI: 354143000.

Date/timePositionNaut miles runAvg speedWind from/ knotsBaromVisibWave heightAir tempDewpointWater temp
2014-Jul-29 22:20N 31°13' E 029°45'0 0.0
2014-Jul-29 21:32N 31°13' E 029°45'0 0.0
2014-Jul-29 20:32N 31°13' E 029°45'0 0.0
2014-Jul-29 16:14N 31°13' E 029°45'0 0.0
2014-Jul-29 15:17N 31°13' E 029°45'0 0.0
2014-Jul-29 13:08N 31°13' E 029°45'0 0.0
2014-Jul-29 12:32N 31°13' E 029°45'0 0.0
2014-Jul-29 11:32N 31°13' E 029°45'0 0.0
2014-Jul-29 10:26N 31°13' E 029°45'0 0.0
2014-Jul-29 09:26N 31°13' E 029°45'0 0.0
2014-Jul-29 04:11N 31°13' E 029°45'0 0.0
2014-Jul-28 18:11N 31°13' E 029°45'0 0.0
2014-Jul-28 16:32N 31°13' E 029°45'  
2014-Jul-24 00:10N 31°10' E 029°51'3 4.7
2014-Jul-23 23:32N 31°11' E 029°48'15 7.0
2014-Jul-23 21:21N 31°17' E 029°32'1210.5
2014-Jul-23 20:10N 31°22' E 029°18'810.3
2014-Jul-23 19:22N 31°25' E 029°09'910.8
2014-Jul-23 18:33N 31°28' E 028°60'1410.8
2014-Jul-23 17:14N 31°34' E 028°44'710.8
2014-Jul-23 16:33N 31°36' E 028°36'2110.6
2014-Jul-23 14:32N 31°45' E 028°13'2110.5
2014-Jul-23 12:33N 31°52' E 027°50'1010.5
2014-Jul-23 11:33N 31°56' E 027°39'  
2014-Jul-20 21:09N 36°00' E 015°32'610.3
2014-Jul-20 20:33N 36°03' E 015°25'1110.5
2014-Jul-20 19:33N 36°07' E 015°13'1110.8
2014-Jul-20 18:33N 36°11' E 015°01'1110.8
2014-Jul-20 17:33N 36°15' E 014°48'1110.8
2014-Jul-20 16:33N 36°19' E 014°36'1110.6
2014-Jul-20 15:33N 36°22' E 014°23'1110.5
2014-Jul-20 14:33N 36°25' E 014°11'1110.8
2014-Jul-20 13:33N 36°29' E 013°58'1110.9
2014-Jul-20 12:33N 36°32' E 013°45'1110.7
2014-Jul-20 11:30N 36°36' E 013°32'1210.7
2014-Jul-20 10:21N 36°40' E 013°17'910.9
2014-Jul-20 09:33N 36°42' E 013°07'1611.3
2014-Jul-20 08:06N 36°48' E 012°48'1811.4
2014-Jul-20 06:33N 36°53' E 012°27'  
Track history (hours):
 
Tides and Currents Weather Stations Pressure Air Temp Water Temp Dewpoint Dewpoint Depression Visibility Wind Speed Wind Dir Waves Ship Positions

Star Vega

Last reported at 2014-Jul-29 22:20 UTC. Time now 2014-Jul-30 05:10 UTC.
Position N 31°13' E 029°45'.

Length 189 m; draft 10.3 m.

Type: Cargo ship. MMSI: 354143000.

Date/timePositionNaut miles runAvg speedWind from/ knotsBaromVisibWave heightAir tempDewpointWater temp
2014-Jul-29 22:20N 31°13' E 029°45'0 0.0
2014-Jul-29 21:32N 31°13' E 029°45'0 0.0
2014-Jul-29 20:32N 31°13' E 029°45'0 0.0
2014-Jul-29 16:14N 31°13' E 029°45'0 0.0
2014-Jul-29 15:17N 31°13' E 029°45'0 0.0
2014-Jul-29 13:08N 31°13' E 029°45'0 0.0
2014-Jul-29 12:32N 31°13' E 029°45'0 0.0
2014-Jul-29 11:32N 31°13' E 029°45'0 0.0
2014-Jul-29 10:26N 31°13' E 029°45'0 0.0
2014-Jul-29 09:26N 31°13' E 029°45'0 0.0
2014-Jul-29 04:11N 31°13' E 029°45'0 0.0
2014-Jul-28 18:11N 31°13' E 029°45'0 0.0
2014-Jul-28 16:32N 31°13' E 029°45'  
2014-Jul-24 00:10N 31°10' E 029°51'3 4.7
2014-Jul-23 23:32N 31°11' E 029°48'15 7.0
2014-Jul-23 21:21N 31°17' E 029°32'1210.5
2014-Jul-23 20:10N 31°22' E 029°18'810.3
2014-Jul-23 19:22N 31°25' E 029°09'910.8
2014-Jul-23 18:33N 31°28' E 028°60'1410.8
2014-Jul-23 17:14N 31°34' E 028°44'710.8
2014-Jul-23 16:33N 31°36' E 028°36'2110.6
2014-Jul-23 14:32N 31°45' E 028°13'2110.5
2014-Jul-23 12:33N 31°52' E 027°50'1010.5
2014-Jul-23 11:33N 31°56' E 027°39'  
2014-Jul-20 21:09N 36°00' E 015°32'610.3
2014-Jul-20 20:33N 36°03' E 015°25'1110.5
2014-Jul-20 19:33N 36°07' E 015°13'1110.8
2014-Jul-20 18:33N 36°11' E 015°01'1110.8
2014-Jul-20 17:33N 36°15' E 014°48'1110.8
2014-Jul-20 16:33N 36°19' E 014°36'1110.6
2014-Jul-20 15:33N 36°22' E 014°23'1110.5
2014-Jul-20 14:33N 36°25' E 014°11'1110.8
2014-Jul-20 13:33N 36°29' E 013°58'1110.9
2014-Jul-20 12:33N 36°32' E 013°45'1110.7
2014-Jul-20 11:30N 36°36' E 013°32'1210.7
2014-Jul-20 10:21N 36°40' E 013°17'910.9
2014-Jul-20 09:33N 36°42' E 013°07'1611.3
2014-Jul-20 08:06N 36°48' E 012°48'1811.4
2014-Jul-20 06:33N 36°53' E 012°27'  

Dump ship's entire track history